Time;durP1;ratioP1;P1;durP2;ratioP2;P2;SDS_P1;SDS_P2;PMS_P1;PMS_P2;Temp;Humidity;BMP_temperature;BMP_pressure;BME280_temperature;BME280_humidity;BME280_pressure;Samples;Min_cycle;Max_cycle;Signal;HPM_P1;HPM_P2
2023/01/10 00:00:40;;;;;;;10.50;5.63;;;;;;;-2.13;100.00;98982.34;5137747;28;20086;-64
2023/01/10 00:03:08;;;;;;;6.90;4.60;;;;;;;-2.40;100.00;98990.94;5135995;28;20093;-64
2023/01/10 00:05:36;;;;;;;13.70;6.82;;;;;;;-2.15;100.00;98971.06;5137888;28;20053;-63
2023/01/10 00:08:02;;;;;;;16.38;6.68;;;;;;;-2.19;100.00;98977.31;5137997;28;20093;-65
2023/01/10 00:10:29;;;;;;;9.27;5.65;;;;;;;-2.02;100.00;98974.16;5137919;28;20043;-61
2023/01/10 00:15:40;;;;;;;9.38;5.75;;;;;;;-2.14;100.00;98974.53;5137736;28;20050;-66
2023/01/10 00:18:07;;;;;;;12.38;6.93;;;;;;;-1.88;100.00;98956.25;5136971;27;20065;-62
2023/01/10 00:20:33;;;;;;;16.45;6.15;;;;;;;-1.94;100.00;98960.06;5137959;28;20378;-64
2023/01/10 00:23:00;;;;;;;9.65;6.88;;;;;;;-1.88;100.00;98960.81;5137442;28;20051;-62
2023/01/10 00:25:26;;;;;;;13.07;7.53;;;;;;;-1.98;100.00;98954.47;5137556;28;20062;-62
2023/01/10 00:28:00;;;;;;;19.50;9.77;;;;;;;-1.83;100.00;98940.06;5137575;28;20403;-60
2023/01/10 00:30:26;;;;;;;11.32;6.95;;;;;;;-1.74;100.00;98946.38;5137640;28;20415;-62
2023/01/10 00:32:55;;;;;;;12.07;7.40;;;;;;;-1.74;100.00;98951.75;5137253;28;20133;-65
2023/01/10 00:35:22;;;;;;;12.07;7.10;;;;;;;-1.68;100.00;98931.00;5137756;27;20078;-62
2023/01/10 00:37:48;;;;;;;11.38;7.00;;;;;;;-1.69;100.00;98950.91;5137355;28;20079;-61
2023/01/10 00:40:16;;;;;;;12.38;7.35;;;;;;;-1.90;100.00;98953.84;5137794;28;20054;-64
2023/01/10 00:45:27;;;;;;;14.10;8.65;;;;;;;-1.72;100.00;98919.22;5137574;28;20120;-61
2023/01/10 00:47:54;;;;;;;17.45;8.52;;;;;;;-1.58;100.00;98913.94;5137190;27;20396;-65
2023/01/10 00:50:20;;;;;;;18.73;8.45;;;;;;;-1.59;100.00;98906.97;5137326;28;20340;-64
2023/01/10 00:52:46;;;;;;;13.77;8.30;;;;;;;-1.65;100.00;98908.91;5137407;27;20047;-62
2023/01/10 00:55:12;;;;;;;14.80;8.20;;;;;;;-1.60;100.00;98895.41;5137483;28;20071;-64
2023/01/10 00:57:38;;;;;;;15.82;8.65;;;;;;;-1.35;100.00;98898.81;5138198;28;20053;-62
2023/01/10 01:00:08;;;;;;;21.63;9.88;;;;;;;-1.23;100.00;98888.41;5137265;28;20091;-65
2023/01/10 01:02:34;;;;;;;16.00;9.52;;;;;;;-1.45;100.00;98892.47;5137387;27;20424;-63
2023/01/10 01:05:01;;;;;;;19.27;9.23;;;;;;;-1.44;100.00;98895.97;5136905;28;20150;-65
2023/01/10 01:07:27;;;;;;;17.80;9.13;;;;;;;-1.29;100.00;98884.19;5137384;28;20051;-61
2023/01/10 01:12:39;;;;;;;21.33;9.88;;;;;;;-1.08;100.00;98874.69;5137013;28;20047;-62
2023/01/10 01:15:06;;;;;;;24.98;9.63;;;;;;;-1.08;100.00;98874.69;5137056;28;20101;-64
2023/01/10 01:17:32;;;;;;;21.08;10.15;;;;;;;-1.23;100.00;98873.06;5136838;28;20154;-65
2023/01/10 01:19:59;;;;;;;21.48;10.90;;;;;;;-1.10;100.00;98868.00;5137330;28;20080;-63
2023/01/10 01:22:26;;;;;;;18.17;9.23;;;;;;;-1.15;100.00;98866.19;5136778;28;20130;-65
2023/01/10 01:24:52;;;;;;;19.45;9.25;;;;;;;-1.24;100.00;98876.81;5137052;28;20191;-61
2023/01/10 01:27:19;;;;;;;29.20;10.43;;;;;;;-1.22;100.00;98849.66;5136631;28;20138;-65
2023/01/10 01:29:47;;;;;;;19.23;8.35;;;;;;;-1.16;100.00;98853.84;5140063;27;20051;-66
2023/01/10 01:32:14;;;;;;;24.83;9.93;;;;;;;-1.09;100.00;98829.25;5140105;28;20050;-64
2023/01/10 01:34:40;;;;;;;20.20;9.65;;;;;;;-0.95;100.00;98840.81;5140107;28;20487;-62
2023/01/10 01:37:06;;;;;;;16.30;8.88;;;;;;;-1.09;100.00;98843.50;5140220;28;20134;-64
2023/01/10 01:39:33;;;;;;;26.08;10.38;;;;;;;-1.06;100.00;98832.16;5139947;28;20058;-63
2023/01/10 01:41:59;;;;;;;18.25;7.55;;;;;;;-1.28;100.00;98838.16;5140179;28;20051;-62
2023/01/10 01:44:30;;;;;;;18.65;6.68;;;;;;;-1.32;100.00;98817.53;5140000;28;20047;-65
2023/01/10 01:47:05;;;;;;;16.05;8.30;;;;;;;-1.33;100.00;98821.31;5140330;27;20047;-65
2023/01/10 01:49:37;;;;;;;26.25;9.18;;;;;;;-1.17;100.00;98808.41;5140036;28;20373;-62
2023/01/10 01:52:12;;;;;;;21.67;8.52;;;;;;;-1.19;100.00;98800.63;5140293;28;20058;-61
2023/01/10 01:54:39;;;;;;;20.02;9.48;;;;;;;-0.93;100.00;98784.00;5139927;28;20047;-65
2023/01/10 01:57:13;;;;;;;18.05;8.75;;;;;;;-1.06;100.00;98783.72;5140270;27;20047;-61
2023/01/10 01:59:42;;;;;;;24.42;7.93;;;;;;;-1.04;100.00;98794.16;5140038;27;20054;-63
2023/01/10 02:02:13;;;;;;;20.95;9.10;;;;;;;-1.07;100.00;98778.63;5139674;28;20047;-62
2023/01/10 02:04:47;;;;;;;17.00;7.82;;;;;;;-1.12;100.00;98789.50;5139875;27;20150;-63
2023/01/10 02:07:14;;;;;;;13.85;7.25;;;;;;;-1.09;100.00;98787.00;5139759;28;20100;-64
2023/01/10 02:09:46;;;;;;;29.58;9.55;;;;;;;-1.14;100.00;98772.84;5139958;28;20047;-62
2023/01/10 02:12:13;;;;;;;19.13;9.48;;;;;;;-1.11;100.00;98783.00;5139831;28;20066;-62
2023/01/10 02:14:41;;;;;;;25.80;10.93;;;;;;;-0.95;100.00;98778.94;5140048;27;20047;-64
2023/01/10 02:17:09;;;;;;;38.40;10.85;;;;;;;-1.09;100.00;98783.53;5139485;28;20051;-62
2023/01/10 02:19:46;;;;;;;37.42;12.02;;;;;;;-0.96;100.00;98783.53;5140015;27;20055;-63
2023/01/10 02:23:03;;;;;;;22.08;9.82;;;;;;;-0.98;100.00;98795.69;5139921;28;20163;-66
2023/01/10 02:26:06;;;;;;;18.20;10.10;;;;;;;-1.08;100.00;98791.28;5103235;28;20090;-64
2023/01/10 02:28:55;;;;;;;27.30;10.82;;;;;;;-0.93;100.00;98781.31;5118038;28;20047;-63
2023/01/10 02:31:50;;;;;;;23.20;9.63;;;;;;;-1.08;100.00;98788.59;5139529;27;20073;-64
2023/01/10 02:34:23;;;;;;;13.88;6.15;;;;;;;-1.30;100.00;98781.19;5138570;28;20112;-61
2023/01/10 02:36:58;;;;;;;26.15;8.20;;;;;;;-1.08;100.00;98772.44;5139627;28;20414;-63
2023/01/10 02:39:34;;;;;;;18.65;8.73;;;;;;;-1.06;100.00;98783.72;5138466;27;20083;-64
2023/01/10 02:42:06;;;;;;;22.98;10.73;;;;;;;-1.07;100.00;98775.94;5139579;28;20062;-66
2023/01/10 02:44:38;;;;;;;28.42;11.60;;;;;;;-0.88;100.00;98778.53;5139256;27;20147;-61
2023/01/10 02:47:06;;;;;;;17.70;9.40;;;;;;;-1.22;100.00;98777.81;5138948;28;20440;-63
2023/01/10 02:49:42;;;;;;;33.50;10.15;;;;;;;-0.81;100.00;98777.03;5139316;27;20051;-63
2023/01/10 02:52:09;;;;;;;16.45;9.00;;;;;;;-1.11;100.00;98786.50;5138939;28;20093;-65
2023/01/10 02:54:36;;;;;;;18.80;9.05;;;;;;;-1.11;100.00;98786.50;5139274;28;20192;-65
2023/01/10 02:57:36;;;;;;;31.42;11.95;;;;;;;-1.10;100.00;98787.28;5138778;28;20147;-66
2023/01/10 03:00:17;;;;;;;24.98;11.65;;;;;;;-1.01;100.00;98778.22;5130986;28;20084;-65
2023/01/10 03:03:08;;;;;;;19.85;10.45;;;;;;;-0.99;100.00;98788.72;5138482;28;20058;-62
2023/01/10 03:05:46;;;;;;;19.45;9.20;;;;;;;-1.21;100.00;98792.84;5138810;28;20138;-65
2023/01/10 03:08:24;;;;;;;25.88;10.43;;;;;;;-1.07;100.00;98790.19;5138937;28;20426;-63
2023/01/10 03:10:56;;;;;;;15.98;5.13;;;;;;;-1.22;100.00;98782.41;5138565;28;20047;-63
2023/01/10 03:13:28;;;;;;;22.63;10.15;;;;;;;-1.12;100.00;98781.41;5139013;27;20058;-64
2023/01/10 03:15:56;;;;;;;16.30;8.95;;;;;;;-1.05;100.00;98782.63;5138468;28;20059;-63
2023/01/10 03:18:27;;;;;;;15.43;7.47;;;;;;;-1.21;100.00;98784.00;5138325;28;20142;-62
2023/01/10 03:20:57;;;;;;;11.75;5.90;;;;;;;-1.08;100.00;98785.91;5138764;28;20427;-62
2023/01/10 03:23:24;;;;;;;14.88;7.93;;;;;;;-1.15;100.00;98777.44;5138588;28;20160;-64
2023/01/10 03:25:54;;;;;;;17.83;8.07;;;;;;;-0.96;100.00;98780.84;5138329;28;20051;-65
2023/01/10 03:28:25;;;;;;;16.33;8.43;;;;;;;-1.00;100.00;98777.16;5138247;28;20417;-63
2023/01/10 03:30:57;;;;;;;26.00;7.93;;;;;;;-1.02;100.00;98781.22;5138596;28;20153;-63
2023/01/10 03:33:27;;;;;;;18.50;7.38;;;;;;;-1.06;100.00;98788.31;5138246;28;20119;-62
2023/01/10 03:36:01;;;;;;;14.75;5.93;;;;;;;-1.16;100.00;98801.94;5138659;28;20494;-63
2023/01/10 03:38:36;;;;;;;22.38;7.68;;;;;;;-0.92;100.00;98797.19;5138372;27;20061;-63
2023/01/10 03:41:07;;;;;;;35.33;7.70;;;;;;;-0.98;100.00;98784.91;5138384;28;20416;-62
2023/01/10 03:46:35;;;;;;;19.88;8.18;;;;;;;-1.25;100.00;98797.22;5138160;28;20128;-63
2023/01/10 03:49:04;;;;;;;37.10;9.23;;;;;;;-0.92;100.00;98801.78;5138503;27;20382;-63
2023/01/10 03:51:32;;;;;;;19.95;9.10;;;;;;;-1.04;100.00;98800.34;5136779;27;20047;-62
2023/01/10 03:54:00;;;;;;;21.80;9.38;;;;;;;-0.95;100.00;98805.84;5138710;27;20125;-65
2023/01/10 03:56:26;;;;;;;24.13;8.50;;;;;;;-0.93;100.00;98809.06;5137849;27;20133;-62
2023/01/10 03:58:52;;;;;;;19.88;8.52;;;;;;;-1.06;100.00;98817.91;5138022;28;20054;-64
2023/01/10 04:01:18;;;;;;;13.60;7.75;;;;;;;-1.24;100.00;98823.03;5138391;27;20061;-63
2023/01/10 04:03:45;;;;;;;16.77;9.02;;;;;;;-1.03;100.00;98825.38;5137846;28;20145;-64
2023/01/10 04:06:11;;;;;;;20.15;8.38;;;;;;;-0.84;100.00;98826.09;5138086;27;20055;-65
2023/01/10 04:08:38;;;;;;;17.20;7.50;;;;;;;-1.05;100.00;98833.72;5137801;28;20549;-64
2023/01/10 04:11:04;;;;;;;21.13;8.00;;;;;;;-0.97;100.00;98830.38;5138094;28;20134;-64
2023/01/10 04:13:31;;;;;;;18.73;9.13;;;;;;;-1.08;100.00;98828.94;5137768;28;20051;-62
2023/01/10 04:15:59;;;;;;;18.77;8.00;;;;;;;-1.06;100.00;98829.47;5138300;27;20098;-67
2023/01/10 04:18:26;;;;;;;16.05;7.88;;;;;;;-1.28;100.00;98846.22;5137678;28;20138;-62
2023/01/10 04:20:52;;;;;;;11.02;7.00;;;;;;;-1.13;100.00;98849.75;5138228;27;20608;-65
2023/01/10 04:23:18;;;;;;;19.10;7.97;;;;;;;-1.11;100.00;98845.69;5137485;28;20051;-62
2023/01/10 04:25:46;;;;;;;17.83;6.93;;;;;;;-0.99;100.00;98846.00;5137852;28;20047;-65
2023/01/10 04:28:13;;;;;;;15.70;6.30;;;;;;;-1.17;100.00;98857.59;5138186;28;20046;-65
2023/01/10 04:30:39;;;;;;;15.95;8.25;;;;;;;-1.05;100.00;98860.63;5137578;28;20059;-63
2023/01/10 04:33:06;;;;;;;18.95;8.40;;;;;;;-1.04;100.00;98862.22;5137678;28;20086;-66
2023/01/10 04:35:32;;;;;;;13.18;6.57;;;;;;;-1.19;100.00;98874.06;5137694;28;20138;-63
2023/01/10 04:37:58;;;;;;;14.55;7.70;;;;;;;-1.09;100.00;98866.91;5137707;28;20141;-65
2023/01/10 04:40:24;;;;;;;20.20;8.07;;;;;;;-1.02;100.00;98870.81;5137078;28;20047;-62
2023/01/10 04:42:51;;;;;;;19.92;8.23;;;;;;;-1.20;100.00;98883.22;5137325;28;20397;-65
2023/01/10 04:45:19;;;;;;;14.00;7.35;;;;;;;-1.14;100.00;98870.47;5137017;28;20055;-63
2023/01/10 04:47:49;;;;;;;18.20;6.53;;;;;;;-1.31;100.00;98880.97;5137569;28;20047;-63
2023/01/10 04:50:16;;;;;;;20.48;10.02;;;;;;;-1.00;100.00;98871.31;5137013;28;20412;-65
2023/01/10 04:52:42;;;;;;;16.63;7.95;;;;;;;-1.09;100.00;98881.16;5137459;28;20054;-64
2023/01/10 04:55:09;;;;;;;9.88;5.35;;;;;;;-1.33;100.00;98904.66;5137277;28;20066;-64
2023/01/10 04:57:36;;;;;;;18.88;8.60;;;;;;;-1.19;100.00;98895.56;5137122;28;20061;-63
2023/01/10 05:00:04;;;;;;;16.02;7.88;;;;;;;-1.05;100.00;98895.63;5137185;27;20109;-65
2023/01/10 05:02:30;;;;;;;23.50;8.57;;;;;;;-1.11;100.00;98890.63;5137051;27;20043;-62
2023/01/10 05:04:56;;;;;;;26.42;8.48;;;;;;;-1.00;100.00;98902.78;5140870;27;20047;-66
2023/01/10 05:07:22;;;;;;;25.52;8.68;;;;;;;-1.06;100.00;98906.69;5140559;28;20047;-62
2023/01/10 05:09:49;;;;;;;29.75;10.27;;;;;;;-1.08;100.00;98920.41;5140788;28;20134;-67
2023/01/10 05:12:15;;;;;;;23.50;8.40;;;;;;;-1.11;100.00;98918.31;5140515;28;20047;-63
2023/01/10 05:14:41;;;;;;;14.73;6.72;;;;;;;-1.13;100.00;98933.13;5140878;27;20047;-66
2023/01/10 05:17:08;;;;;;;19.17;9.02;;;;;;;-1.00;100.00;98937.78;5140381;28;20047;-62
2023/01/10 05:19:34;;;;;;;19.30;7.60;;;;;;;-0.95;100.00;98941.19;5140122;27;20134;-65
2023/01/10 05:22:00;;;;;;;22.77;8.02;;;;;;;-1.15;100.00;98965.72;5140131;28;20133;-63
2023/01/10 05:24:27;;;;;;;20.00;8.30;;;;;;;-1.20;100.00;98955.03;5140201;28;20051;-66
2023/01/10 05:26:53;;;;;;;14.68;8.50;;;;;;;-1.19;100.00;98964.72;5140303;28;20051;-63
2023/01/10 05:29:19;;;;;;;26.42;9.10;;;;;;;-1.09;100.00;98966.47;5140295;28;20332;-66
2023/01/10 05:31:45;;;;;;;24.98;8.57;;;;;;;-0.91;100.00;98968.31;5140197;27;20043;-63
2023/01/10 05:34:12;;;;;;;21.38;9.40;;;;;;;-0.75;100.00;98966.97;5140195;28;20062;-67
2023/01/10 05:36:39;;;;;;;27.00;8.65;;;;;;;-1.06;100.00;98993.56;5140215;28;20078;-63
2023/01/10 05:39:05;;;;;;;15.98;7.53;;;;;;;-1.19;100.00;98995.09;5139701;28;20099;-66
2023/01/10 05:41:31;;;;;;;16.75;7.85;;;;;;;-1.00;100.00;98987.03;5140291;28;20790;-64
2023/01/10 05:43:58;;;;;;;21.60;9.18;;;;;;;-1.17;100.00;99005.56;5139775;28;20086;-65
2023/01/10 05:46:24;;;;;;;26.30;9.65;;;;;;;-1.04;100.00;99010.22;5140257;27;20051;-64
2023/01/10 05:48:51;;;;;;;15.27;7.75;;;;;;;-1.28;100.00;99029.13;5139699;28;20343;-66
2023/01/10 05:51:18;;;;;;;22.70;9.23;;;;;;;-1.17;100.00;99028.97;5139897;28;20130;-64
2023/01/10 05:53:45;;;;;;;21.77;8.32;;;;;;;-1.07;100.00;99040.38;5139790;27;20093;-64
2023/01/10 05:56:11;;;;;;;21.23;7.78;;;;;;;-1.17;100.00;99040.53;5139592;28;20138;-65
2023/01/10 05:58:37;;;;;;;24.65;8.30;;;;;;;-1.06;100.00;99050.06;5139904;27;20353;-66
2023/01/10 06:01:03;;;;;;;15.13;7.40;;;;;;;-1.08;100.00;99046.06;5139431;28;20141;-64
2023/01/10 06:03:30;;;;;;;11.75;6.28;;;;;;;-1.13;100.00;99046.94;5139654;28;20425;-66
2023/01/10 06:05:56;;;;;;;15.45;6.07;;;;;;;-1.24;100.00;99057.03;5139355;28;20051;-63
2023/01/10 06:08:24;;;;;;;21.80;7.43;;;;;;;-1.05;100.00;99056.25;5139854;28;20047;-64
2023/01/10 06:10:50;;;;;;;13.07;5.88;;;;;;;-1.20;100.00;99065.31;5139372;28;20047;-64
2023/01/10 06:13:16;;;;;;;17.77;6.85;;;;;;;-1.25;100.00;99073.47;5139775;28;20054;-65
2023/01/10 06:15:43;;;;;;;22.58;5.75;;;;;;;-1.23;100.00;99076.69;5138162;27;20134;-63
2023/01/10 06:18:09;;;;;;;15.07;6.50;;;;;;;-1.21;100.00;99085.25;5139672;28;20077;-65
2023/01/10 06:20:35;;;;;;;11.85;7.28;;;;;;;-1.17;100.00;99091.66;5139430;27;20055;-65
2023/01/10 06:23:03;;;;;;;17.33;7.03;;;;;;;-1.26;100.00;99101.47;5139207;28;20051;-63
2023/01/10 06:25:30;;;;;;;11.82;4.55;;;;;;;-1.22;100.00;99108.66;5139423;27;20047;-66
2023/01/10 06:27:56;;;;;;;11.77;4.75;;;;;;;-1.34;100.00;99107.47;5138985;28;20107;-64
2023/01/10 06:30:23;;;;;;;17.52;6.57;;;;;;;-1.45;100.00;99115.66;5139365;27;20047;-65
2023/01/10 06:32:49;;;;;;;22.75;8.88;;;;;;;-1.04;100.00;99111.66;5139197;28;20082;-63
2023/01/10 06:35:16;;;;;;;14.65;6.45;;;;;;;-1.21;100.00;99120.22;5139482;28;20130;-67
2023/01/10 06:37:43;;;;;;;17.17;5.60;;;;;;;-1.05;100.00;99128.91;5139054;28;20160;-67
2023/01/10 06:40:10;;;;;;;21.15;8.13;;;;;;;-1.00;100.00;99135.03;5139370;27;20150;-65
2023/01/10 06:42:37;;;;;;;17.45;6.28;;;;;;;-1.16;100.00;99152.44;5138685;28;20061;-64
2023/01/10 06:45:04;;;;;;;25.90;8.45;;;;;;;-0.95;100.00;99158.38;5139340;27;20046;-66
2023/01/10 06:47:31;;;;;;;15.95;6.65;;;;;;;-1.23;100.00;99186.97;5138895;28;20047;-64
2023/01/10 06:49:57;;;;;;;38.80;12.82;;;;;;;-1.08;100.00;99192.16;5138913;28;20145;-67
2023/01/10 06:52:23;;;;;;;15.40;7.55;;;;;;;-1.02;100.00;99206.34;5138632;27;20051;-66
2023/01/10 06:54:51;;;;;;;106.50;39.25;;;;;;;-0.99;100.00;99220.03;5138606;28;20047;-62
2023/01/10 06:57:18;;;;;;;33.55;12.02;;;;;;;-1.19;100.00;99239.09;5138822;27;20047;-64
2023/01/10 06:59:45;;;;;;;50.80;18.50;;;;;;;-1.24;100.00;99244.53;5138375;28;20130;-63
2023/01/10 07:02:12;;;;;;;22.70;8.52;;;;;;;-1.21;100.00;99258.19;5138572;28;20055;-66
2023/01/10 07:04:38;;;;;;;45.55;15.85;;;;;;;-1.12;100.00;99273.75;5138199;28;20055;-65
2023/01/10 07:07:05;;;;;;;24.58;9.20;;;;;;;-1.26;100.00;99282.47;5138727;27;20043;-65
2023/01/10 07:09:31;;;;;;;29.02;9.20;;;;;;;-1.10;100.00;99304.66;5138481;28;20134;-64
2023/01/10 07:11:57;;;;;;;42.28;13.68;;;;;;;-1.11;100.00;99307.63;5138839;27;20294;-66
2023/01/10 07:14:24;;;;;;;40.88;16.65;;;;;;;-1.26;100.00;99324.72;5138117;28;20048;-65
2023/01/10 07:16:51;;;;;;;19.23;6.93;;;;;;;-1.24;100.00;99335.97;5138259;28;20415;-65
2023/01/10 07:19:18;;;;;;;16.33;8.32;;;;;;;-1.11;100.00;99354.16;5138736;28;20078;-65
2023/01/10 07:21:45;;;;;;;22.55;8.90;;;;;;;-1.05;100.00;99374.56;5138358;28;20095;-66
2023/01/10 07:24:11;;;;;;;31.30;10.32;;;;;;;-1.29;100.00;99408.66;5138154;27;20100;-65
2023/01/10 07:26:37;;;;;;;21.65;10.30;;;;;;;-0.82;100.00;99410.69;5138124;27;20128;-64
2023/01/10 07:29:04;;;;;;;29.23;11.55;;;;;;;-0.68;100.00;99450.41;5138207;28;20057;-64
2023/01/10 07:31:30;;;;;;;12.35;5.40;;;;;;;-1.03;100.00;99482.72;5137848;28;20134;-63
2023/01/10 07:33:57;;;;;;;14.45;6.35;;;;;;;-0.86;100.00;99495.78;5138292;28;20047;-65
2023/01/10 07:36:23;;;;;;;23.65;11.95;;;;;;;-1.06;100.00;99512.06;5137994;28;20082;-65
2023/01/10 07:38:49;;;;;;;10.00;5.35;;;;;;;-1.39;100.00;99543.19;5138455;28;20135;-64
2023/01/10 07:41:15;;;;;;;6.88;4.28;;;;;;;-1.20;100.00;99538.78;5137898;28;20332;-63
2023/01/10 07:43:42;;;;;;;12.50;6.47;;;;;;;-1.44;100.00;99547.50;5138262;27;20195;-66
2023/01/10 07:46:10;;;;;;;13.48;5.93;;;;;;;-1.28;100.00;99555.50;5137888;28;20488;-63
2023/01/10 07:48:37;;;;;;;16.95;5.13;;;;;;;-1.39;100.00;99562.81;5137879;28;20337;-66
2023/01/10 07:51:05;;;;;;;15.35;4.70;;;;;;;-1.39;100.00;99568.22;5138081;28;20489;-65
2023/01/10 07:53:32;;;;;;;11.05;4.50;;;;;;;-1.25;100.00;99571.09;5138887;28;20057;-65
2023/01/10 07:55:59;;;;;;;21.50;6.38;;;;;;;-0.98;100.00;99581.44;5138695;28;20048;-63
2023/01/10 07:58:25;;;;;;;9.82;4.38;;;;;;;-1.21;100.00;99601.75;5137545;28;20085;-64
2023/01/10 08:00:52;;;;;;;17.85;5.47;;;;;;;-1.29;100.00;99619.25;5137901;28;20471;-66
2023/01/10 08:03:18;;;;;;;16.65;6.13;;;;;;;-1.15;100.00;99624.06;5137566;28;20094;-62
2023/01/10 08:05:44;;;;;;;15.68;6.30;;;;;;;-1.32;100.00;99635.94;5138103;27;20043;-66
2023/01/10 08:08:12;;;;;;;16.98;5.20;;;;;;;-1.39;100.00;99638.13;5137592;28;20043;-66
2023/01/10 08:10:39;;;;;;;10.05;4.47;;;;;;;-1.53;100.00;99642.50;5137829;28;20115;-65
2023/01/10 08:13:05;;;;;;;12.52;4.75;;;;;;;-1.35;100.00;99639.19;5137502;27;20047;-64
2023/01/10 08:15:32;;;;;;;15.23;4.93;;;;;;;-1.27;100.00;99649.38;5137188;28;20084;-66
2023/01/10 08:18:00;;;;;;;10.95;5.07;;;;;;;-1.19;100.00;99670.34;5137213;27;20145;-66
2023/01/10 08:20:26;;;;;;;8.55;3.92;;;;;;;-1.41;100.00;99686.00;5137055;28;20107;-63
2023/01/10 08:22:52;;;;;;;14.23;4.97;;;;;;;-1.52;100.00;99706.75;5137401;27;20046;-67
2023/01/10 08:25:19;;;;;;;11.45;4.38;;;;;;;-1.39;100.00;99708.06;5137004;28;20061;-64
2023/01/10 08:27:45;;;;;;;12.05;6.82;;;;;;;-1.33;100.00;99722.28;5137228;27;20137;-66
2023/01/10 08:30:13;;;;;;;12.02;4.47;;;;;;;-1.41;100.00;99731.72;5137308;28;20055;-63
2023/01/10 08:32:39;;;;;;;13.70;5.70;;;;;;;-1.35;100.00;99736.03;5137516;28;20058;-64
2023/01/10 08:35:06;;;;;;;13.05;5.90;;;;;;;-1.52;100.00;99741.69;5136762;28;20374;-65
2023/01/10 08:37:32;;;;;;;11.13;5.10;;;;;;;-1.38;100.00;99747.31;5136644;27;20074;-66
2023/01/10 08:39:58;;;;;;;8.32;4.75;;;;;;;-1.64;100.00;99765.34;5136978;27;20115;-66
2023/01/10 08:42:25;;;;;;;12.13;5.38;;;;;;;-1.37;100.00;99775.03;5136865;28;20142;-64
2023/01/10 08:44:53;;;;;;;7.97;3.60;;;;;;;-1.73;100.00;99789.28;5136939;28;20137;-66
2023/01/10 08:47:19;;;;;;;11.15;4.65;;;;;;;-1.55;100.00;99782.56;5136824;28;20412;-64
2023/01/10 08:49:48;;;;;;;14.25;5.75;;;;;;;-1.34;100.00;99782.53;5136901;27;20051;-67
2023/01/10 08:52:14;;;;;;;18.80;6.35;;;;;;;-1.33;100.00;99794.91;5136688;28;20050;-66
2023/01/10 08:54:41;;;;;;;14.57;5.22;;;;;;;-1.29;100.00;99807.56;5136980;28;20090;-64
2023/01/10 08:57:07;;;;;;;6.93;3.30;;;;;;;-1.41;100.00;99812.41;5136491;28;20051;-63
2023/01/10 08:59:34;;;;;;;8.27;4.57;;;;;;;-1.60;100.00;99822.91;5136668;28;20051;-65
2023/01/10 09:02:00;;;;;;;10.68;4.75;;;;;;;-1.54;100.00;99819.13;5136486;28;20134;-65
2023/01/10 09:04:28;;;;;;;8.90;4.90;;;;;;;-1.51;100.00;99823.97;5137356;28;20530;-65
2023/01/10 09:06:55;;;;;;;8.85;4.05;;;;;;;-1.72;100.00;99833.91;5136537;27;20412;-63
2023/01/10 09:09:22;;;;;;;13.32;5.85;;;;;;;-1.72;100.00;99835.78;5136917;28;20336;-64
2023/01/10 09:11:48;;;;;;;14.15;5.35;;;;;;;-1.49;100.00;99837.97;5137234;28;20119;-66
2023/01/10 09:14:15;;;;;;;11.57;4.25;;;;;;;-1.56;100.00;99847.38;5136912;28;20419;-63
2023/01/10 09:16:42;;;;;;;12.73;4.15;;;;;;;-1.58;100.00;99844.94;5136629;28;20043;-65
2023/01/10 09:19:08;;;;;;;10.95;4.45;;;;;;;-1.22;100.00;99850.34;5136681;28;20047;-63
2023/01/10 09:21:34;;;;;;;9.30;4.15;;;;;;;-1.31;100.00;99839.28;5136553;27;20061;-66
2023/01/10 09:24:00;;;;;;;9.98;4.40;;;;;;;-0.96;100.00;99829.59;5136470;28;20047;-63
2023/01/10 09:26:26;;;;;;;10.80;4.57;;;;;;;-1.12;100.00;99825.31;5136680;27;20063;-66
2023/01/10 09:28:53;;;;;;;7.68;4.03;;;;;;;-1.34;100.00;99804.06;5136363;28;20431;-65
2023/01/10 09:31:19;;;;;;;10.65;4.10;;;;;;;-1.60;100.00;99809.47;5136818;28;20083;-66
2023/01/10 09:33:48;;;;;;;6.20;3.55;;;;;;;-1.52;100.00;99817.00;5136387;28;20074;-65
2023/01/10 09:36:15;;;;;;;14.35;4.68;;;;;;;-1.27;100.00;99823.44;5136638;28;20058;-61
2023/01/10 09:38:41;;;;;;;6.60;2.97;;;;;;;-1.44;100.00;99800.31;5136287;28;20133;-66
2023/01/10 09:41:23;;;;;;;24.27;3.33;;;;;;;-1.65;100.00;99790.63;5135995;28;20091;-63
2023/01/10 09:43:58;;;;;;;13.13;3.97;;;;;;;-1.69;100.00;99793.06;5135692;27;20047;-61
2023/01/10 09:46:32;;;;;;;17.00;4.18;;;;;;;-1.69;100.00;99782.31;5135955;27;20364;-61
2023/01/10 09:49:06;;;;;;;10.13;4.97;;;;;;;-1.48;100.00;99769.66;5137332;27;20497;-58
2023/01/10 09:51:36;;;;;;;7.80;3.45;;;;;;;-1.64;100.00;99753.81;5139812;28;20089;-68
2023/01/10 09:54:06;;;;;;;9.23;4.18;;;;;;;-1.81;100.00;99738.75;5139634;28;20075;-62
2023/01/10 09:56:34;;;;;;;6.88;4.15;;;;;;;-1.35;100.00;99729.84;5139499;28;20055;-68
2023/01/10 09:59:02;;;;;;;9.82;4.30;;;;;;;-1.62;100.00;99690.63;5139363;28;20139;-65
2023/01/10 10:01:35;;;;;;;6.57;3.53;;;;;;;-1.61;100.00;99673.41;5139344;28;20054;-67
2023/01/10 10:04:15;;;;;;;14.30;5.43;;;;;;;-1.47;100.00;99669.06;5140240;28;20321;-65
2023/01/10 10:06:41;;;;;;;10.35;4.18;;;;;;;-1.77;100.00;99607.31;5139714;28;20332;-64
2023/01/10 10:09:12;;;;;;;19.38;5.57;;;;;;;-1.62;100.00;99609.16;5139440;28;20046;-59
2023/01/10 10:11:52;;;;;;;13.70;5.07;;;;;;;-1.78;100.00;99562.69;5138954;28;20055;-64
2023/01/10 10:14:32;;;;;;;19.80;7.72;;;;;;;-1.37;100.00;99565.22;5139694;28;20057;-68
2023/01/10 10:17:14;;;;;;;18.02;6.43;;;;;;;-1.75;100.00;99516.47;5139106;28;20051;-64
2023/01/10 10:19:57;;;;;;;16.33;5.50;;;;;;;-1.93;100.00;99448.81;5139475;28;20062;-67
2023/01/10 10:22:33;;;;;;;11.57;4.70;;;;;;;-1.79;100.00;99459.78;5139752;28;20143;-65
2023/01/10 10:25:11;;;;;;;36.17;17.05;;;;;;;-1.51;100.00;99470.91;5139469;28;20142;-68
2023/01/10 10:27:51;;;;;;;20.65;6.07;;;;;;;-1.29;100.00;99441.75;5139689;28;20051;-63
2023/01/10 10:30:32;;;;;;;12.70;6.85;;;;;;;-1.30;100.00;99389.03;5139395;28;20066;-67
2023/01/10 10:33:12;;;;;;;10.30;5.40;;;;;;;-1.62;100.00;99306.19;5138613;28;20055;-62
2023/01/10 10:35:41;;;;;;;17.83;6.80;;;;;;;-1.37;100.00;99307.03;5138886;28;20062;-62
2023/01/10 10:38:12;;;;;;;16.35;4.10;;;;;;;-1.38;100.00;99286.63;5138955;28;20130;-68
2023/01/10 10:40:42;;;;;;;16.77;5.05;;;;;;;-1.53;100.00;99236.50;5139340;28;20055;-63
2023/01/10 10:43:18;;;;;;;11.98;4.10;;;;;;;-1.49;100.00;99175.69;5138842;28;20185;-67
2023/01/10 10:45:50;;;;;;;14.55;5.15;;;;;;;-1.46;100.00;99116.75;5139145;28;20137;-71
2023/01/10 10:48:21;;;;;;;12.98;4.78;;;;;;;-1.58;100.00;99070.63;5138580;28;20043;-69
2023/01/10 10:50:57;;;;;;;9.18;4.18;;;;;;;-1.53;100.00;99021.41;5138587;28;20149;-68
2023/01/10 10:53:24;;;;;;;15.68;6.82;;;;;;;-1.53;100.00;98968.44;5138732;28;20051;-66
2023/01/10 10:55:50;;;;;;;11.18;3.88;;;;;;;-1.59;100.00;98928.47;5138652;28;20112;-69
2023/01/10 10:58:17;;;;;;;10.07;4.35;;;;;;;-1.62;100.00;98910.22;5138768;28;20071;-70
2023/01/10 11:00:43;;;;;;;17.73;5.18;;;;;;;-1.83;100.00;98861.31;5137972;27;20055;-65
2023/01/10 11:03:27;;;;;;;12.10;5.43;;;;;;;-1.73;100.00;98859.31;5138637;28;20130;-65
2023/01/10 11:05:55;;;;;;;13.23;4.90;;;;;;;-1.53;100.00;98852.03;5138309;28;20139;-64
2023/01/10 11:08:23;;;;;;;19.45;5.10;;;;;;;-1.50;100.00;98827.22;5138588;28;20051;-64
2023/01/10 11:10:53;;;;;;;12.60;5.05;;;;;;;-1.28;100.00;98832.78;5137982;28;20097;-67
2023/01/10 11:13:30;;;;;;;13.20;5.80;;;;;;;-1.42;100.00;98835.44;5138269;28;20051;-63
2023/01/10 11:15:56;;;;;;;13.80;4.65;;;;;;;-1.48;100.00;98823.16;5138536;28;20046;-62
2023/01/10 11:18:25;;;;;;;20.83;3.92;;;;;;;-1.47;100.00;98829.34;5138465;28;20426;-68
2023/01/10 11:20:57;;;;;;;9.25;3.67;;;;;;;-1.54;100.00;98770.56;5138580;28;20146;-65
2023/01/10 11:23:31;;;;;;;13.02;3.38;;;;;;;-1.72;100.00;98774.91;5138039;28;20055;-68
2023/01/10 11:25:58;;;;;;;9.32;3.85;;;;;;;-1.65;100.00;98769.16;5138469;28;20053;-66
2023/01/10 11:28:31;;;;;;;10.95;3.15;;;;;;;-1.58;100.00;98799.13;5137980;28;20050;-64
2023/01/10 11:30:59;;;;;;;26.02;4.55;;;;;;;-1.85;100.00;98812.47;5137857;28;20470;-67
2023/01/10 11:33:29;;;;;;;7.82;3.50;;;;;;;-1.69;100.00;98849.56;5137775;28;20043;-69
2023/01/10 11:35:57;;;;;;;7.25;4.00;;;;;;;-1.72;100.00;98830.53;5137802;28;20055;-67